Finlayson, MN (55735)

5:17 AM CDT on September 22, 2014 (GMT -0500)
RiverLand | Change Station
CLOSE
Current Station
Personal Weather Station
Location: Finlayson, MN
Elevation: 1115 ft
Nearby Weather Stations

Elev 1115 ft 46.29 °N, 92.96 °W | Updated 6 minutes ago

Overcast
Overcast
44.8 °F
Feels Like 45 °F
N
0.0
Wind Variable Wind from ESE
Gusts 0.0 mph

Today
High -- | Low -- °F
--% Chance of Precip.
Yesterday
High -- | Low -- °F
Precip. -- in
6:58 AM 7:09 PM
Waning Crescent, 3% visible
Pressure 30.21 in
Visibility 0.8 miles
Clouds Overcast 200 ft
Windchill 45 °F
Dew Point 37 °F
Humidity 75%
Rainfall 0.00 in
Snow Depth Not available.
UV 0 out of 12
Pollen .60 out of 12
Air Quality Not available.
Flu Activity Not available.
METAR K04W 221001Z AUTO 00000KT 3/4SM BR OVC002 05/05 A3021 RMK AO2

More Conditions Fewer Conditions

Pressure 30.21 in
Visibility 0.8 miles
Clouds Overcast 200 ft
Windchill 45 °F
Dew Point 37 °F
Humidity 75%
Rainfall 0.00 in
Snow Depth Not available.
UV 0 out of 12
Pollen .60 out of 12
Air Quality Not available.
Flu Activity Not available.
METAR K04W 221001Z AUTO 00000KT 3/4SM BR OVC002 05/05 A3021 RMK AO2

More Conditions Fewer Conditions

10-Day Weather Forecast

Almanac

Astronomy

Sep. 22, 2014 Rise Set
Actual Time 6:58 AM CDT 7:09 PM CDT
Civil Twilight 6:28 AM CDT 7:39 PM CDT
Nautical Twilight 5:53 AM CDT 8:14 PM CDT
Astronomical Twilight 5:17 AM CDT 8:50 PM CDT
Moon 5:24 AM CDT 6:19 PM CDT
Length of Visible Light 13h 10m
Length of Day
12h 10m
Tomorrow will be 3m 14s shorter.
Waning Crescent, 3% of the Moon is Illuminated
Today
Waning Crescent
Sep 24
New
Oct 1
First Quarter
Oct 8
Full
Oct 15
Last Quarter

Today's Extremes

State Highs State Lows

Community

WunderPhotos

Upload Photos

1,755,404 photos uploaded!

Nearby

Snow Depth

Station Depth Elevation
No new snow has been reported.

Earthquake Activity

City Distance Mag. Time & Date
No recent earthquake activity has been reported nearby.
Minimum magnitude displayed is 2.5.

Coastal Water Temperatures

Place Temperature
No Stations Reporting

Nearby Weather Stations